createdAt,value
2022-09-16T00:01:14.576Z,15.10
2022-09-16T00:03:44.610Z,15.10
2022-09-16T00:06:21.122Z,15.10
2022-09-16T00:08:49.688Z,15.00
2022-09-16T00:11:18.276Z,15.00
2022-09-16T00:13:47.025Z,15.00
2022-09-16T00:16:20.990Z,15.00
2022-09-16T00:18:54.179Z,14.90
2022-09-16T00:21:22.316Z,14.90
2022-09-16T00:23:50.376Z,14.80
2022-09-16T00:26:18.782Z,14.80
2022-09-16T00:28:49.857Z,14.80
2022-09-16T00:31:18.748Z,14.70
2022-09-16T00:33:47.161Z,14.70
2022-09-16T00:36:18.738Z,14.70
2022-09-16T00:38:46.811Z,14.70
2022-09-16T00:41:20.119Z,14.70
2022-09-16T00:43:51.696Z,14.60
2022-09-16T00:46:22.499Z,14.60
2022-09-16T00:48:51.190Z,14.60
2022-09-16T00:51:22.166Z,14.60
2022-09-16T00:53:57.031Z,14.60
2022-09-16T00:56:27.334Z,14.60
2022-09-16T00:59:02.521Z,14.60
2022-09-16T01:01:31.129Z,14.50
2022-09-16T01:04:04.398Z,14.50
2022-09-16T01:06:35.962Z,14.50
2022-09-16T01:09:04.984Z,14.50
2022-09-16T01:11:33.098Z,14.40
2022-09-16T01:14:22.038Z,14.40
2022-09-16T01:16:59.282Z,14.40
2022-09-16T01:19:47.852Z,14.40
2022-09-16T01:22:33.957Z,14.40
2022-09-16T01:25:09.344Z,14.40
2022-09-16T01:27:55.535Z,14.30
2022-09-16T01:30:50.692Z,14.30
2022-09-16T01:33:34.469Z,14.30
2022-09-16T01:36:12.066Z,14.30
2022-09-16T01:38:56.050Z,14.30
2022-09-16T01:41:31.743Z,14.30
2022-09-16T01:44:04.252Z,14.20
2022-09-16T01:46:43.046Z,14.20
2022-09-16T01:49:19.963Z,14.20
2022-09-16T01:51:53.396Z,14.20
2022-09-16T01:54:27.344Z,14.20
2022-09-16T01:57:02.505Z,14.20
2022-09-16T01:59:36.448Z,14.10
2022-09-16T02:02:10.809Z,14.10
2022-09-16T02:04:43.520Z,14.10
2022-09-16T02:07:14.062Z,14.10
2022-09-16T02:09:47.804Z,14.10
2022-09-16T02:12:21.902Z,14.10
2022-09-16T02:14:51.735Z,14.10
2022-09-16T02:17:24.932Z,14.00
2022-09-16T02:19:58.343Z,14.00
2022-09-16T02:22:30.617Z,14.00
2022-09-16T02:25:01.120Z,14.00
2022-09-16T02:27:31.732Z,14.00
2022-09-16T02:30:05.500Z,14.00
2022-09-16T02:32:38.409Z,14.00
2022-09-16T02:35:08.987Z,13.90
2022-09-16T02:37:42.005Z,13.90
2022-09-16T02:40:15.893Z,13.90
2022-09-16T02:42:44.216Z,13.90
2022-09-16T02:45:13.445Z,13.90
2022-09-16T02:47:50.732Z,13.90
2022-09-16T02:50:27.020Z,13.90
2022-09-16T02:53:00.910Z,13.80
2022-09-16T02:55:38.377Z,13.80
2022-09-16T02:58:07.076Z,13.80
2022-09-16T03:00:40.560Z,13.80
2022-09-16T03:03:10.659Z,13.80
2022-09-16T03:05:42.170Z,13.70
2022-09-16T03:08:10.211Z,13.70
2022-09-16T03:10:45.044Z,13.70
2022-09-16T03:13:20.545Z,13.70
2022-09-16T03:15:58.849Z,13.70
2022-09-16T03:18:41.680Z,13.70
2022-09-16T03:21:18.019Z,13.70
2022-09-16T03:23:57.844Z,13.70
2022-09-16T03:26:35.980Z,13.70
2022-09-16T03:29:12.535Z,13.70
2022-09-16T03:31:47.788Z,13.70
2022-09-16T03:34:22.289Z,13.70
2022-09-16T03:36:53.886Z,13.70
2022-09-16T03:39:23.378Z,13.70
2022-09-16T03:41:52.254Z,13.70
2022-09-16T03:44:20.304Z,13.70
2022-09-16T03:46:48.387Z,13.70
2022-09-16T03:49:18.239Z,13.70
2022-09-16T03:51:46.321Z,13.70
2022-09-16T03:54:14.467Z,13.70
2022-09-16T03:56:42.529Z,13.70
2022-09-16T03:59:10.571Z,13.70
2022-09-16T04:01:38.653Z,13.70
2022-09-16T04:04:06.800Z,13.70
2022-09-16T04:06:36.361Z,13.70
2022-09-16T04:09:05.023Z,13.70
2022-09-16T04:11:33.257Z,13.70
2022-09-16T04:14:01.460Z,13.70
2022-09-16T04:16:29.529Z,13.70
2022-09-16T04:18:57.577Z,13.70
2022-09-16T04:21:25.959Z,13.70
2022-09-16T04:23:55.735Z,13.70
2022-09-16T04:26:23.826Z,13.70
2022-09-16T04:28:53.737Z,13.70
2022-09-16T04:31:21.858Z,13.70
2022-09-16T04:33:50.785Z,13.70
2022-09-16T04:36:21.055Z,13.60
2022-09-16T04:38:50.427Z,13.60
2022-09-16T04:41:21.824Z,13.60
2022-09-16T04:43:53.824Z,13.70
2022-09-16T04:46:21.992Z,13.70
2022-09-16T04:48:50.483Z,13.70
2022-09-16T04:51:19.683Z,13.70
2022-09-16T04:53:48.433Z,13.70
2022-09-16T04:56:18.920Z,13.70
2022-09-16T04:58:51.871Z,13.60
2022-09-16T05:01:21.869Z,13.70
2022-09-16T05:03:52.365Z,13.70
2022-09-16T05:06:23.194Z,13.70
2022-09-16T05:08:52.502Z,13.70
2022-09-16T05:11:22.509Z,13.80
2022-09-16T05:13:52.208Z,13.80
2022-09-16T05:16:22.436Z,13.90
2022-09-16T05:18:51.925Z,13.90
2022-09-16T05:21:22.514Z,13.90
2022-09-16T05:23:50.967Z,13.80
2022-09-16T05:26:20.812Z,13.80
2022-09-16T05:28:50.893Z,13.80
2022-09-16T05:31:22.324Z,13.80
2022-09-16T05:33:56.251Z,13.90
2022-09-16T05:36:25.452Z,13.90
2022-09-16T05:39:21.077Z,13.90
2022-09-16T05:41:42.057Z,14.00
2022-09-16T05:44:10.104Z,14.00
2022-09-16T05:46:40.650Z,14.00
2022-09-16T05:49:09.154Z,14.00
2022-09-16T05:51:39.172Z,14.10
2022-09-16T05:54:07.790Z,14.10
2022-09-16T05:56:36.041Z,14.20
2022-09-16T05:59:04.168Z,14.20
2022-09-16T06:01:33.977Z,14.30
2022-09-16T06:04:05.651Z,14.30
2022-09-16T06:06:35.305Z,14.30
2022-09-16T06:09:09.075Z,14.30
2022-09-16T06:11:39.477Z,14.30
2022-09-16T06:14:08.496Z,14.40
2022-09-16T06:16:37.399Z,14.40
2022-09-16T06:19:10.507Z,14.40
2022-09-16T06:21:38.859Z,14.50
2022-09-16T06:24:09.102Z,14.50
2022-09-16T06:26:38.384Z,14.60
2022-09-16T06:29:07.136Z,14.70
2022-09-16T06:31:36.531Z,14.70
2022-09-16T06:34:06.968Z,14.80
2022-09-16T06:36:38.505Z,14.90
2022-09-16T06:39:08.766Z,15.00
2022-09-16T06:41:36.873Z,15.00
2022-09-16T06:44:04.919Z,15.10
2022-09-16T06:46:32.992Z,15.20
2022-09-16T06:49:05.326Z,15.20
2022-09-16T06:51:36.134Z,15.10
2022-09-16T06:54:08.544Z,15.20
2022-09-16T06:56:39.264Z,15.30
2022-09-16T06:59:08.044Z,15.30
2022-09-16T07:01:36.470Z,15.40
2022-09-16T07:04:06.584Z,15.50
2022-09-16T07:07:08.773Z,15.60
2022-09-16T07:09:24.310Z,15.70
2022-09-16T07:11:52.419Z,15.70
2022-09-16T07:14:20.477Z,15.70
2022-09-16T07:16:48.569Z,15.70
2022-09-16T07:19:16.689Z,15.70
2022-09-16T07:21:46.181Z,15.70
2022-09-16T07:24:15.570Z,15.70
2022-09-16T07:26:44.468Z,15.80
2022-09-16T07:29:15.036Z,15.80
2022-09-16T07:31:43.687Z,15.80
2022-09-16T07:34:14.111Z,15.70
2022-09-16T07:36:43.790Z,15.60
2022-09-16T07:39:14.490Z,15.60
2022-09-16T07:41:44.373Z,15.70
2022-09-16T07:44:13.952Z,15.60
2022-09-16T07:46:42.177Z,15.60
2022-09-16T07:49:13.281Z,15.60
2022-09-16T07:51:41.501Z,15.70
2022-09-16T07:54:11.987Z,15.80
2022-09-16T07:56:42.974Z,15.80
2022-09-16T07:59:17.536Z,15.90
2022-09-16T08:01:49.336Z,16.00
2022-09-16T08:04:18.398Z,16.10
2022-09-16T08:06:47.969Z,16.10
2022-09-16T08:12:07.986Z,16.20
2022-09-16T08:14:36.535Z,16.30
2022-09-16T08:17:05.378Z,16.40
2022-09-16T08:19:33.453Z,16.50
2022-09-16T08:22:01.530Z,16.60
2022-09-16T08:24:29.623Z,16.80
2022-09-16T08:26:57.669Z,16.90
2022-09-16T08:29:27.327Z,17.00
2022-09-16T08:31:55.483Z,17.10
2022-09-16T08:34:23.845Z,17.10
2022-09-16T08:36:52.149Z,17.10
2022-09-16T08:39:21.729Z,17.10
2022-09-16T08:42:16.719Z,17.20
2022-09-16T08:44:57.771Z,17.30
2022-09-16T08:47:37.779Z,17.40
2022-09-16T08:50:11.451Z,17.50
2022-09-16T08:52:41.098Z,17.40
2022-09-16T08:55:13.184Z,17.50
2022-09-16T08:57:44.612Z,17.60
2022-09-16T09:00:18.447Z,17.70
2022-09-16T09:02:54.656Z,17.70
2022-09-16T09:05:32.504Z,17.70
2022-09-16T09:08:25.488Z,17.70
2022-09-16T09:10:58.418Z,17.70
2022-09-16T09:13:45.540Z,17.70
2022-09-16T09:16:24.001Z,17.80
2022-09-16T09:19:04.541Z,17.90
2022-09-16T09:21:39.366Z,18.00
2022-09-16T09:24:36.151Z,18.00
2022-09-16T09:27:11.740Z,17.90
2022-09-16T09:29:51.952Z,17.90
2022-09-16T09:32:42.060Z,18.00
2022-09-16T09:35:26.244Z,18.00
2022-09-16T09:38:13.520Z,18.10
2022-09-16T09:40:47.460Z,18.10
2022-09-16T09:43:19.583Z,18.30
2022-09-16T09:45:57.502Z,18.30
2022-09-16T09:48:32.187Z,18.20
2022-09-16T09:51:05.711Z,18.20
2022-09-16T09:53:39.388Z,18.30
2022-09-16T09:56:17.494Z,18.30
2022-09-16T09:58:52.860Z,18.30
2022-09-16T10:01:20.956Z,18.30
2022-09-16T10:03:58.194Z,18.20
2022-09-16T10:06:30.815Z,18.20
2022-09-16T10:08:59.644Z,18.20
2022-09-16T10:11:31.126Z,18.20
2022-09-16T10:14:01.060Z,18.30
2022-09-16T10:16:31.910Z,18.40
2022-09-16T10:19:09.198Z,18.50
2022-09-16T10:21:46.133Z,18.60
2022-09-16T10:24:31.327Z,18.70
2022-09-16T10:27:00.426Z,18.60
2022-09-16T10:29:28.779Z,18.60
2022-09-16T10:31:59.325Z,18.60
2022-09-16T10:34:35.177Z,18.50
2022-09-16T10:37:06.571Z,18.50
2022-09-16T10:39:35.225Z,18.50
2022-09-16T10:42:04.252Z,18.70
2022-09-16T10:44:34.750Z,18.80
2022-09-16T10:47:07.131Z,18.90
2022-09-16T10:49:41.495Z,19.00
2022-09-16T10:52:20.153Z,18.90
2022-09-16T10:54:48.868Z,18.80
2022-09-16T10:57:24.232Z,18.80
2022-09-16T11:00:00.752Z,18.70
2022-09-16T11:02:44.274Z,18.60
2022-09-16T11:05:24.012Z,18.50
2022-09-16T11:08:06.395Z,18.60
2022-09-16T11:10:40.503Z,18.70
2022-09-16T11:13:26.180Z,18.80
2022-09-16T11:16:06.510Z,18.90
2022-09-16T11:18:50.799Z,18.80
2022-09-16T11:21:50.358Z,18.80
2022-09-16T11:24:35.227Z,18.60
2022-09-16T11:27:11.663Z,18.60
2022-09-16T11:29:52.008Z,18.60
2022-09-16T11:32:30.162Z,18.60
2022-09-16T11:35:17.618Z,18.50
2022-09-16T11:37:55.773Z,18.50
2022-09-16T11:40:35.436Z,18.40
2022-09-16T11:43:22.312Z,18.50
2022-09-16T11:45:58.177Z,18.50
2022-09-16T11:48:42.548Z,18.60
2022-09-16T11:51:23.964Z,18.90
2022-09-16T11:54:10.845Z,19.10
2022-09-16T11:56:44.737Z,19.10
2022-09-16T11:59:19.264Z,19.20
2022-09-16T12:01:52.848Z,19.30
2022-09-16T12:04:36.188Z,19.40
2022-09-16T12:07:12.368Z,19.50
2022-09-16T12:09:47.871Z,19.50
2022-09-16T12:12:18.380Z,19.60
2022-09-16T12:14:49.868Z,19.60
2022-09-16T12:17:22.172Z,19.70
2022-09-16T12:19:57.104Z,19.70
2022-09-16T12:22:33.102Z,19.70
2022-09-16T12:25:08.722Z,19.70
2022-09-16T12:27:44.496Z,19.70
2022-09-16T12:30:18.712Z,19.70
2022-09-16T12:32:57.759Z,19.60
2022-09-16T12:38:01.012Z,19.30
2022-09-16T12:40:37.084Z,19.20
2022-09-16T12:43:28.751Z,19.10
2022-09-16T12:46:29.918Z,19.10
2022-09-16T12:49:29.375Z,19.00
2022-09-16T12:52:26.293Z,19.10
2022-09-16T12:55:30.079Z,19.20
2022-09-16T12:58:16.971Z,19.30
2022-09-16T13:00:57.030Z,19.30
2022-09-16T13:03:28.920Z,19.40
2022-09-16T13:05:59.212Z,19.30
2022-09-16T13:08:29.208Z,19.40
2022-09-16T13:11:35.566Z,19.40
2022-09-16T13:13:52.075Z,19.40
2022-09-16T13:16:30.734Z,19.30
2022-09-16T13:19:28.372Z,19.20
2022-09-16T13:22:00.105Z,19.20
2022-09-16T13:24:36.155Z,19.10
2022-09-16T13:27:15.883Z,19.00
2022-09-16T13:29:45.407Z,19.00
2022-09-16T13:32:27.502Z,19.00
2022-09-16T13:35:03.544Z,19.00
2022-09-16T13:37:31.601Z,19.10
2022-09-16T13:40:10.636Z,19.10
2022-09-16T13:42:38.683Z,19.20
2022-09-16T13:45:33.876Z,19.20
2022-09-16T13:48:10.481Z,19.30
2022-09-16T13:50:41.113Z,19.30
2022-09-16T13:53:19.408Z,19.30
2022-09-16T13:55:49.276Z,19.30
2022-09-16T13:58:26.532Z,19.20
2022-09-16T14:01:05.896Z,19.20
2022-09-16T14:03:51.123Z,19.20
2022-09-16T14:06:46.828Z,19.20
2022-09-16T14:09:27.064Z,19.20
2022-09-16T14:12:03.940Z,19.30
2022-09-16T14:14:46.966Z,19.20
2022-09-16T14:17:24.082Z,19.30
2022-09-16T14:19:56.937Z,19.30
2022-09-16T14:22:27.422Z,19.30
2022-09-16T14:25:05.977Z,19.20
2022-09-16T14:27:39.469Z,19.30
2022-09-16T14:30:15.252Z,19.20
2022-09-16T14:32:45.659Z,19.30
2022-09-16T14:35:19.895Z,19.30
2022-09-16T14:37:51.055Z,19.20
2022-09-16T14:40:23.105Z,19.20
2022-09-16T14:42:54.795Z,19.10
2022-09-16T14:45:23.403Z,19.10
2022-09-16T14:47:55.224Z,19.10
2022-09-16T14:50:26.500Z,19.20
2022-09-16T14:52:56.809Z,19.20
2022-09-16T14:55:27.121Z,19.30
2022-09-16T14:57:55.296Z,19.30
2022-09-16T15:00:24.668Z,19.40
2022-09-16T15:02:57.422Z,19.50
2022-09-16T15:05:30.546Z,19.60
2022-09-16T15:08:14.473Z,19.70
2022-09-16T15:10:52.395Z,19.80
2022-09-16T15:13:24.118Z,19.80
2022-09-16T15:15:54.560Z,19.80
2022-09-16T15:18:28.678Z,19.80
2022-09-16T15:21:05.825Z,19.80
2022-09-16T15:23:34.723Z,19.70
2022-09-16T15:26:16.737Z,19.60
2022-09-16T15:28:57.547Z,19.50
2022-09-16T15:31:37.011Z,19.40
2022-09-16T15:34:21.897Z,19.40
2022-09-16T15:36:52.034Z,19.40
2022-09-16T15:39:25.664Z,19.30
2022-09-16T15:42:10.436Z,19.40
2022-09-16T15:44:44.181Z,19.30
2022-09-16T15:47:19.736Z,19.20
2022-09-16T15:49:52.108Z,19.30
2022-09-16T15:52:20.456Z,19.30
2022-09-16T15:54:52.269Z,19.30
2022-09-16T15:57:31.713Z,19.30
2022-09-16T16:00:12.796Z,19.40
2022-09-16T16:02:45.238Z,19.30
2022-09-16T16:05:17.802Z,19.20
2022-09-16T16:07:48.437Z,19.20
2022-09-16T16:10:19.595Z,19.20
2022-09-16T16:12:49.378Z,19.10
2022-09-16T16:15:19.778Z,19.10
2022-09-16T16:17:49.605Z,19.00
2022-09-16T16:20:21.848Z,19.00
2022-09-16T16:22:50.317Z,19.00
2022-09-16T16:25:18.645Z,18.90
2022-09-16T16:27:46.768Z,18.90
2022-09-16T16:30:15.034Z,18.80
2022-09-16T16:32:44.471Z,18.80
2022-09-16T16:35:13.032Z,18.70
2022-09-16T16:37:47.103Z,18.70
2022-09-16T16:40:16.710Z,18.70
2022-09-16T16:42:45.241Z,18.70
2022-09-16T16:45:14.107Z,18.70
2022-09-16T16:47:42.304Z,18.70
2022-09-16T16:50:11.055Z,18.60
2022-09-16T16:52:39.336Z,18.60
2022-09-16T16:55:09.904Z,18.60
2022-09-16T16:57:37.964Z,18.60
2022-09-16T17:00:07.461Z,18.50
2022-09-16T17:02:35.685Z,18.50
2022-09-16T17:05:03.825Z,18.40
2022-09-16T17:07:32.808Z,18.30
2022-09-16T17:10:00.842Z,18.20
2022-09-16T17:12:30.343Z,18.10
2022-09-16T17:14:58.447Z,18.00
2022-09-16T17:17:31.431Z,17.90
2022-09-16T17:20:00.240Z,17.90
2022-09-16T17:22:28.325Z,17.80
2022-09-16T17:24:56.753Z,17.70
2022-09-16T17:27:27.011Z,17.60
2022-09-16T17:29:56.560Z,17.60
2022-09-16T17:32:24.970Z,17.50
2022-09-16T17:34:53.053Z,17.50
2022-09-16T17:37:21.213Z,17.40
2022-09-16T17:39:49.878Z,17.40
2022-09-16T17:42:17.993Z,17.30
2022-09-16T17:44:46.071Z,17.30
2022-09-16T17:47:15.513Z,17.20
2022-09-16T17:49:43.608Z,17.20
2022-09-16T17:52:11.647Z,17.20
2022-09-16T17:54:40.976Z,17.10
2022-09-16T17:57:09.024Z,17.10
2022-09-16T17:59:37.095Z,17.10
2022-09-16T18:02:05.209Z,17.00
2022-09-16T18:04:34.680Z,17.00
2022-09-16T18:07:02.929Z,17.00
2022-09-16T18:09:31.837Z,16.90
2022-09-16T18:11:59.965Z,16.90
2022-09-16T18:14:28.053Z,16.90
2022-09-16T18:16:56.213Z,16.90
2022-09-16T18:19:24.420Z,16.90
2022-09-16T18:21:53.874Z,16.90
2022-09-16T18:24:21.948Z,16.90
2022-09-16T18:26:50.265Z,16.90
2022-09-16T18:29:18.345Z,16.90
2022-09-16T18:31:48.092Z,17.00
2022-09-16T18:34:17.510Z,17.00
2022-09-16T18:36:46.049Z,17.00
2022-09-16T18:39:17.365Z,17.00
2022-09-16T18:41:46.618Z,17.00
2022-09-16T18:44:16.342Z,16.90
2022-09-16T18:46:44.811Z,16.90
2022-09-16T18:49:15.150Z,16.90
2022-09-16T18:51:49.919Z,16.90
2022-09-16T18:54:24.978Z,16.90
2022-09-16T18:56:55.796Z,16.90
2022-09-16T18:59:26.907Z,16.90
2022-09-16T19:01:56.962Z,16.90
2022-09-16T19:04:27.276Z,16.90
2022-09-16T19:06:57.026Z,16.90
2022-09-16T19:09:26.698Z,16.90
2022-09-16T19:11:55.002Z,16.80
2022-09-16T19:14:24.982Z,16.80
2022-09-16T19:16:53.235Z,16.80
2022-09-16T19:19:22.100Z,16.80
2022-09-16T19:21:50.294Z,16.70
2022-09-16T19:24:20.437Z,16.70
2022-09-16T19:26:52.720Z,16.70
2022-09-16T19:29:21.503Z,16.70
2022-09-16T19:31:52.144Z,16.60
2022-09-16T19:34:20.866Z,16.60
2022-09-16T19:36:49.044Z,16.60
2022-09-16T19:39:17.421Z,16.50
2022-09-16T19:41:45.548Z,16.50
2022-09-16T19:44:17.092Z,16.50
2022-09-16T19:46:47.109Z,16.50
2022-09-16T19:49:17.069Z,16.40
2022-09-16T19:51:45.242Z,16.40
2022-09-16T19:54:13.756Z,16.30
2022-09-16T19:56:44.226Z,16.30
2022-09-16T19:59:16.692Z,16.20
2022-09-16T20:01:45.005Z,16.20
2022-09-16T20:04:13.763Z,16.10
2022-09-16T20:06:43.232Z,16.00
2022-09-16T20:09:13.608Z,16.00
2022-09-16T20:11:43.723Z,16.00
2022-09-16T20:14:15.607Z,15.90
2022-09-16T20:16:45.218Z,15.90
2022-09-16T20:19:15.421Z,15.80
2022-09-16T20:21:44.428Z,15.80
2022-09-16T20:24:16.624Z,15.70
2022-09-16T20:26:44.947Z,15.60
2022-09-16T20:29:13.136Z,15.60
2022-09-16T20:31:41.235Z,15.50
2022-09-16T20:34:12.353Z,15.50
2022-09-16T20:36:40.866Z,15.40
2022-09-16T20:39:10.108Z,15.40
2022-09-16T20:41:40.348Z,15.30
2022-09-16T20:44:11.377Z,15.30
2022-09-16T20:46:39.914Z,15.30
2022-09-16T20:49:15.132Z,15.30
2022-09-16T20:51:43.447Z,15.30
2022-09-16T20:54:13.932Z,15.30
2022-09-16T20:56:45.696Z,15.20
2022-09-16T20:59:16.251Z,15.20
2022-09-16T21:01:44.788Z,15.10
2022-09-16T21:04:16.736Z,15.00
2022-09-16T21:06:45.551Z,15.00
2022-09-16T21:09:15.757Z,14.90
2022-09-16T21:11:45.241Z,14.90
2022-09-16T21:14:16.401Z,14.90
2022-09-16T21:16:46.118Z,14.90
2022-09-16T21:19:16.755Z,14.90
2022-09-16T21:21:46.404Z,14.90
2022-09-16T21:24:15.146Z,14.80
2022-09-16T21:26:43.980Z,14.80
2022-09-16T21:29:15.288Z,14.80
2022-09-16T21:31:44.420Z,14.80
2022-09-16T21:34:16.117Z,14.80
2022-09-16T21:36:45.549Z,14.80
2022-09-16T21:39:14.225Z,14.80
2022-09-16T21:41:42.402Z,14.80
2022-09-16T21:44:10.632Z,14.80
2022-09-16T21:46:43.115Z,14.80
2022-09-16T21:49:18.287Z,14.80
2022-09-16T21:51:47.903Z,14.80
2022-09-16T21:54:20.156Z,14.80
2022-09-16T21:56:49.219Z,14.80
2022-09-16T21:59:19.551Z,14.80
2022-09-16T22:01:48.057Z,14.80
2022-09-16T22:04:17.777Z,14.80
2022-09-16T22:06:48.829Z,14.70
2022-09-16T22:09:17.612Z,14.70
2022-09-16T22:11:45.727Z,14.70
2022-09-16T22:14:13.909Z,14.70
2022-09-16T22:16:42.348Z,14.70
2022-09-16T22:19:12.421Z,14.70
2022-09-16T22:21:42.367Z,14.60
2022-09-16T22:24:12.565Z,14.60
2022-09-16T22:26:41.191Z,14.60
2022-09-16T22:29:09.604Z,14.60
2022-09-16T22:31:39.317Z,14.60
2022-09-16T22:34:07.607Z,14.50
2022-09-16T22:36:37.097Z,14.50
2022-09-16T22:39:07.039Z,14.60
2022-09-16T22:41:36.596Z,14.50
2022-09-16T22:44:05.148Z,14.50
2022-09-16T22:46:35.117Z,14.40
2022-09-16T22:49:03.242Z,14.40
2022-09-16T22:51:31.313Z,14.40
2022-09-16T22:53:59.457Z,14.40
2022-09-16T22:56:31.971Z,14.40
2022-09-16T22:59:02.968Z,14.40
2022-09-16T23:01:33.074Z,14.40
2022-09-16T23:04:03.102Z,14.40
2022-09-16T23:06:33.233Z,14.40
2022-09-16T23:09:01.864Z,14.40
2022-09-16T23:11:32.476Z,14.40
2022-09-16T23:14:02.560Z,14.40
2022-09-16T23:16:32.303Z,14.40
2022-09-16T23:19:03.375Z,14.40
2022-09-16T23:21:32.404Z,14.40
2022-09-16T23:24:03.339Z,14.40
2022-09-16T23:26:33.112Z,14.30
2022-09-16T23:29:04.430Z,14.40
2022-09-16T23:31:34.805Z,14.30
2022-09-16T23:34:07.590Z,14.30
2022-09-16T23:36:37.929Z,14.30
2022-09-16T23:39:07.369Z,14.30
2022-09-16T23:41:36.131Z,14.30
2022-09-16T23:44:05.696Z,14.40
2022-09-16T23:46:34.490Z,14.40
2022-09-16T23:49:02.667Z,14.40
2022-09-16T23:51:32.331Z,14.30
2022-09-16T23:54:01.276Z,14.30
2022-09-16T23:56:29.340Z,14.20
2022-09-16T23:59:00.847Z,14.30
